Terminal Aerodrome Forecast
Issued by NWS

Home | Current Version | Previous Version | Text Only | Print | Product List | Glossary On
Versions: 1 2 3 4 5 6 7 8 9 10 11 12 13
000
FTUS45 KRIW 291100
TAFRKS
TAF
KRKS 291126Z 2912/3012 06016G26KT 2SM -SN BLSN OVC015
     FM292000 07016G24KT 3SM -SN BLSN SCT012 OVC025
     FM300000 06015G25KT P6SM -SN OVC040=

USA.gov is the U.S. government's official web portal to all federal, state and local government web resources and services.